sensor_id;sensor_type;location;lat;lon;timestamp;pressure;altitude;pressure_sealevel;temperature;humidity
82728;BME280;72459;50.110;8.750;2024-02-04T00:01:25;101594.56;;;9.78;76.57
82728;BME280;72459;50.110;8.750;2024-02-04T00:03:50;101579.88;;;9.81;75.86
82728;BME280;72459;50.110;8.750;2024-02-04T00:06:15;101584.97;;;9.78;76.72
82728;BME280;72459;50.110;8.750;2024-02-04T00:08:41;101583.16;;;9.77;76.73
82728;BME280;72459;50.110;8.750;2024-02-04T00:11:06;101582.75;;;9.71;76.43
82728;BME280;72459;50.110;8.750;2024-02-04T00:13:33;101585.56;;;9.74;76.60
82728;BME280;72459;50.110;8.750;2024-02-04T00:15:59;101580.84;;;9.69;77.56
82728;BME280;72459;50.110;8.750;2024-02-04T00:18:24;101578.03;;;9.66;76.60
82728;BME280;72459;50.110;8.750;2024-02-04T00:20:50;101568.63;;;9.69;76.83
82728;BME280;72459;50.110;8.750;2024-02-04T00:23:15;101571.88;;;9.65;77.18
82728;BME280;72459;50.110;8.750;2024-02-04T00:25:41;101564.28;;;9.55;78.66
82728;BME280;72459;50.110;8.750;2024-02-04T00:28:07;101568.09;;;9.60;77.14
82728;BME280;72459;50.110;8.750;2024-02-04T00:30:32;101571.53;;;9.59;76.81
82728;BME280;72459;50.110;8.750;2024-02-04T00:32:57;101564.38;;;9.57;76.76
82728;BME280;72459;50.110;8.750;2024-02-04T00:35:28;101578.03;;;9.51;77.46
82728;BME280;72459;50.110;8.750;2024-02-04T00:37:53;101563.38;;;9.54;77.94
82728;BME280;72459;50.110;8.750;2024-02-04T00:40:19;101561.47;;;9.52;78.04
82728;BME280;72459;50.110;8.750;2024-02-04T00:42:44;101555.59;;;9.56;76.17
82728;BME280;72459;50.110;8.750;2024-02-04T00:45:10;101549.81;;;9.47;77.71
82728;BME280;72459;50.110;8.750;2024-02-04T00:47:36;101546.47;;;9.49;77.98
82728;BME280;72459;50.110;8.750;2024-02-04T00:50:01;101556.13;;;9.50;77.33
82728;BME280;72459;50.110;8.750;2024-02-04T00:52:26;101552.34;;;9.45;77.73
82728;BME280;72459;50.110;8.750;2024-02-04T00:54:52;101547.63;;;9.40;77.98
82728;BME280;72459;50.110;8.750;2024-02-04T00:57:17;101549.53;;;9.42;78.25
82728;BME280;72459;50.110;8.750;2024-02-04T00:59:43;101550.44;;;9.43;77.79
82728;BME280;72459;50.110;8.750;2024-02-04T01:02:08;101563.66;;;9.44;78.34
82728;BME280;72459;50.110;8.750;2024-02-04T01:04:33;101557.69;;;9.47;76.78
82728;BME280;72459;50.110;8.750;2024-02-04T01:06:59;101560.13;;;9.44;77.97
82728;BME280;72459;50.110;8.750;2024-02-04T01:09:24;101548.91;;;9.46;76.98
82728;BME280;72459;50.110;8.750;2024-02-04T01:11:50;101545.19;;;9.43;78.47
82728;BME280;72459;50.110;8.750;2024-02-04T01:14:15;101557.31;;;9.41;78.45
82728;BME280;72459;50.110;8.750;2024-02-04T01:16:41;101548.91;;;9.46;76.99
82728;BME280;72459;50.110;8.750;2024-02-04T01:19:06;101542.75;;;9.46;77.41
82728;BME280;72459;50.110;8.750;2024-02-04T01:21:31;101546.38;;;9.48;76.92
82728;BME280;72459;50.110;8.750;2024-02-04T01:23:57;101542.03;;;9.48;78.06
82728;BME280;72459;50.110;8.750;2024-02-04T01:26:22;101551.63;;;9.48;77.73
82728;BME280;72459;50.110;8.750;2024-02-04T01:28:49;101558.31;;;9.43;77.90
82728;BME280;72459;50.110;8.750;2024-02-04T01:31:14;101551.44;;;9.45;77.00
82728;BME280;72459;50.110;8.750;2024-02-04T01:33:40;101538.84;;;9.39;78.03
82728;BME280;72459;50.110;8.750;2024-02-04T01:36:05;101559.94;;;9.41;78.05
82728;BME280;72459;50.110;8.750;2024-02-04T01:38:31;101561.94;;;9.45;77.78
82728;BME280;72459;50.110;8.750;2024-02-04T01:40:56;101561.75;;;9.42;76.89
82728;BME280;72459;50.110;8.750;2024-02-04T01:43:23;101565.38;;;9.44;77.79
82728;BME280;72459;50.110;8.750;2024-02-04T01:45:50;101568.72;;;9.41;77.53
82728;BME280;72459;50.110;8.750;2024-02-04T01:48:17;101572.44;;;9.45;78.33
82728;BME280;72459;50.110;8.750;2024-02-04T01:50:43;101570.44;;;9.41;78.80
82728;BME280;72459;50.110;8.750;2024-02-04T01:53:10;101571.97;;;9.37;78.53
82728;BME280;72459;50.110;8.750;2024-02-04T01:55:36;101579.13;;;9.40;77.43
82728;BME280;72459;50.110;8.750;2024-02-04T01:58:02;101582.38;;;9.36;79.35
82728;BME280;72459;50.110;8.750;2024-02-04T02:00:28;101574.50;;;9.36;78.31
82728;BME280;72459;50.110;8.750;2024-02-04T02:02:55;101583.09;;;9.33;79.40
82728;BME280;72459;50.110;8.750;2024-02-04T02:05:21;101565.72;;;9.35;77.95
82728;BME280;72459;50.110;8.750;2024-02-04T02:07:47;101577.56;;;9.29;79.22
82728;BME280;72459;50.110;8.750;2024-02-04T02:10:16;101578.56;;;9.31;78.99
82728;BME280;72459;50.110;8.750;2024-02-04T02:12:51;101582.53;;;9.24;79.42
82728;BME280;72459;50.110;8.750;2024-02-04T02:15:22;101570.22;;;9.23;79.24
82728;BME280;72459;50.110;8.750;2024-02-04T02:17:56;101568.41;;;9.22;78.57
82728;BME280;72459;50.110;8.750;2024-02-04T02:23:21;101549.41;;;9.11;80.37
82728;BME280;72459;50.110;8.750;2024-02-04T02:25:47;101555.84;;;9.03;79.71
82728;BME280;72459;50.110;8.750;2024-02-04T02:28:13;101565.53;;;9.04;77.84
82728;BME280;72459;50.110;8.750;2024-02-04T02:30:39;101546.81;;;8.98;80.36
82728;BME280;72459;50.110;8.750;2024-02-04T02:33:04;101546.81;;;8.98;79.33
82728;BME280;72459;50.110;8.750;2024-02-04T02:35:31;101551.94;;;8.97;79.15
82728;BME280;72459;50.110;8.750;2024-02-04T02:40:31;101542.19;;;8.94;79.01
82728;BME280;72459;50.110;8.750;2024-02-04T02:43:01;101542.28;;;8.96;80.11
82728;BME280;72459;50.110;8.750;2024-02-04T02:45:28;101543.00;;;8.93;80.80
82728;BME280;72459;50.110;8.750;2024-02-04T02:47:54;101536.22;;;8.97;79.85
82728;BME280;72459;50.110;8.750;2024-02-04T02:50:20;101527.97;;;8.90;80.10
82728;BME280;72459;50.110;8.750;2024-02-04T02:52:46;101534.94;;;8.90;79.38
82728;BME280;72459;50.110;8.750;2024-02-04T02:55:11;101533.22;;;8.90;80.18
82728;BME280;72459;50.110;8.750;2024-02-04T02:57:37;101526.97;;;8.88;81.33
82728;BME280;72459;50.110;8.750;2024-02-04T03:00:02;101520.38;;;8.80;81.27
82728;BME280;72459;50.110;8.750;2024-02-04T03:02:29;101519.66;;;8.83;81.32
82728;BME280;72459;50.110;8.750;2024-02-04T03:04:55;101515.75;;;8.76;82.65
82728;BME280;72459;50.110;8.750;2024-02-04T03:07:20;101508.59;;;8.74;82.95
82728;BME280;72459;50.110;8.750;2024-02-04T03:09:45;101511.03;;;8.71;83.87
82728;BME280;72459;50.110;8.750;2024-02-04T03:12:11;101502.53;;;8.75;80.75
82728;BME280;72459;50.110;8.750;2024-02-04T03:14:36;101501.06;;;8.65;83.40
82728;BME280;72459;50.110;8.750;2024-02-04T03:17:01;101499.53;;;8.69;83.62
82728;BME280;72459;50.110;8.750;2024-02-04T03:19:27;101510.03;;;8.69;81.00
82728;BME280;72459;50.110;8.750;2024-02-04T03:21:52;101518.06;;;8.72;82.27
82728;BME280;72459;50.110;8.750;2024-02-04T03:24:17;101507.69;;;8.73;83.74
82728;BME280;72459;50.110;8.750;2024-02-04T03:26:43;101509.22;;;8.70;83.79
82728;BME280;72459;50.110;8.750;2024-02-04T03:29:08;101511.94;;;8.71;81.95
82728;BME280;72459;50.110;8.750;2024-02-04T03:31:33;101504.88;;;8.70;82.08
82728;BME280;72459;50.110;8.750;2024-02-04T03:33:59;101509.94;;;8.67;83.29
82728;BME280;72459;50.110;8.750;2024-02-04T03:36:24;101513.66;;;8.71;82.95
82728;BME280;72459;50.110;8.750;2024-02-04T03:38:50;101501.16;;;8.67;82.91
82728;BME280;72459;50.110;8.750;2024-02-04T03:41:16;101498.53;;;8.67;83.87
82728;BME280;72459;50.110;8.750;2024-02-04T03:43:41;101500.06;;;8.63;83.59
82728;BME280;72459;50.110;8.750;2024-02-04T03:46:07;101486.88;;;8.62;83.29
82728;BME280;72459;50.110;8.750;2024-02-04T03:48:32;101491.50;;;8.66;81.73
82728;BME280;72459;50.110;8.750;2024-02-04T03:50:59;101493.13;;;8.64;83.41
82728;BME280;72459;50.110;8.750;2024-02-04T03:53:24;101497.34;;;8.62;84.24
82728;BME280;72459;50.110;8.750;2024-02-04T03:55:50;101491.13;;;8.60;82.67
82728;BME280;72459;50.110;8.750;2024-02-04T03:58:16;101487.78;;;8.62;84.03
82728;BME280;72459;50.110;8.750;2024-02-04T04:00:41;101480.44;;;8.56;84.66
82728;BME280;72459;50.110;8.750;2024-02-04T04:03:06;101480.44;;;8.56;84.63
82728;BME280;72459;50.110;8.750;2024-02-04T04:05:32;101486.41;;;8.54;82.90
82728;BME280;72459;50.110;8.750;2024-02-04T04:07:57;101490.72;;;8.53;84.72
82728;BME280;72459;50.110;8.750;2024-02-04T04:10:23;101487.22;;;8.53;83.16
82728;BME280;72459;50.110;8.750;2024-02-04T04:12:48;101494.16;;;8.52;82.61
82728;BME280;72459;50.110;8.750;2024-02-04T04:15:13;101501.31;;;8.55;84.03
82728;BME280;72459;50.110;8.750;2024-02-04T04:17:39;101497.88;;;8.56;83.61
82728;BME280;72459;50.110;8.750;2024-02-04T04:20:06;101498.69;;;8.55;84.04
82728;BME280;72459;50.110;8.750;2024-02-04T04:22:32;101497.16;;;8.58;82.85
82728;BME280;72459;50.110;8.750;2024-02-04T04:24:58;101498.16;;;8.61;82.32
82728;BME280;72459;50.110;8.750;2024-02-04T04:27:24;101494.72;;;8.62;83.66
82728;BME280;72459;50.110;8.750;2024-02-04T04:29:49;101491.41;;;8.64;81.50
82728;BME280;72459;50.110;8.750;2024-02-04T04:32:15;101499.25;;;8.64;81.88
82728;BME280;72459;50.110;8.750;2024-02-04T04:34:40;101503.78;;;8.67;82.67
82728;BME280;72459;50.110;8.750;2024-02-04T04:37:05;101495.22;;;8.69;81.84
82728;BME280;72459;50.110;8.750;2024-02-04T04:39:31;101489.88;;;8.68;81.84
82728;BME280;72459;50.110;8.750;2024-02-04T04:41:56;101491.88;;;8.72;81.54
82728;BME280;72459;50.110;8.750;2024-02-04T04:44:21;101484.00;;;8.72;82.17
82728;BME280;72459;50.110;8.750;2024-02-04T04:46:47;101497.91;;;8.71;83.07
82728;BME280;72459;50.110;8.750;2024-02-04T04:49:13;101485.81;;;8.73;81.85
82728;BME280;72459;50.110;8.750;2024-02-04T04:51:39;101493.78;;;8.74;83.34
82728;BME280;72459;50.110;8.750;2024-02-04T04:54:04;101496.31;;;8.73;83.64
82728;BME280;72459;50.110;8.750;2024-02-04T04:56:29;101494.88;;;8.78;81.66
82728;BME280;72459;50.110;8.750;2024-02-04T04:58:55;101498.13;;;8.74;81.36
82728;BME280;72459;50.110;8.750;2024-02-04T05:01:20;101499.31;;;8.79;80.35
82728;BME280;72459;50.110;8.750;2024-02-04T05:03:46;101493.25;;;8.80;80.76
82728;BME280;72459;50.110;8.750;2024-02-04T05:06:13;101506.72;;;8.86;81.63
82728;BME280;72459;50.110;8.750;2024-02-04T05:08:38;101492.44;;;8.81;82.01
82728;BME280;72459;50.110;8.750;2024-02-04T05:11:03;101484.56;;;8.81;81.93
82728;BME280;72459;50.110;8.750;2024-02-04T05:13:29;101491.63;;;8.82;83.37
82728;BME280;72459;50.110;8.750;2024-02-04T05:15:54;101482.13;;;8.84;81.42
82728;BME280;72459;50.110;8.750;2024-02-04T05:18:19;101493.81;;;8.89;80.22
82728;BME280;72459;50.110;8.750;2024-02-04T05:20:45;101487.84;;;8.92;80.11
82728;BME280;72459;50.110;8.750;2024-02-04T05:23:10;101480.78;;;8.90;80.94
82728;BME280;72459;50.110;8.750;2024-02-04T05:25:36;101480.78;;;8.90;80.58
82728;BME280;72459;50.110;8.750;2024-02-04T05:28:01;101483.50;;;8.92;81.97
82728;BME280;72459;50.110;8.750;2024-02-04T05:30:27;101489.47;;;8.89;82.06
82728;BME280;72459;50.110;8.750;2024-02-04T05:32:53;101485.50;;;8.96;80.15
82728;BME280;72459;50.110;8.750;2024-02-04T05:35:18;101477.72;;;8.98;80.51
82728;BME280;72459;50.110;8.750;2024-02-04T05:37:44;101487.69;;;9.03;79.57
82728;BME280;72459;50.110;8.750;2024-02-04T05:40:10;101483.16;;;9.01;81.74
82728;BME280;72459;50.110;8.750;2024-02-04T05:42:35;101477.09;;;9.02;81.84
82728;BME280;72459;50.110;8.750;2024-02-04T05:45:02;101482.44;;;9.03;82.24
82728;BME280;72459;50.110;8.750;2024-02-04T05:47:28;101491.31;;;9.05;81.67
82728;BME280;72459;50.110;8.750;2024-02-04T05:49:53;101487.59;;;9.02;81.81
82728;BME280;72459;50.110;8.750;2024-02-04T05:52:18;101490.22;;;9.02;82.36
82728;BME280;72459;50.110;8.750;2024-02-04T05:54:44;101486.78;;;9.03;80.80
82728;BME280;72459;50.110;8.750;2024-02-04T05:57:09;101492.28;;;9.07;82.36
82728;BME280;72459;50.110;8.750;2024-02-04T05:59:36;101493.13;;;9.06;81.80
82728;BME280;72459;50.110;8.750;2024-02-04T06:02:02;101490.81;;;9.11;81.76
82728;BME280;72459;50.110;8.750;2024-02-04T06:04:28;101484.44;;;9.07;81.60
82728;BME280;72459;50.110;8.750;2024-02-04T06:06:53;101483.84;;;9.11;81.03
82728;BME280;72459;50.110;8.750;2024-02-04T06:09:19;101484.66;;;9.10;80.95
82728;BME280;72459;50.110;8.750;2024-02-04T06:11:45;101482.94;;;9.11;81.14
82728;BME280;72459;50.110;8.750;2024-02-04T06:14:11;101481.00;;;9.08;81.56
82728;BME280;72459;50.110;8.750;2024-02-04T06:16:36;101476.88;;;9.12;80.66
82728;BME280;72459;50.110;8.750;2024-02-04T06:19:02;101483.13;;;9.14;81.28
82728;BME280;72459;50.110;8.750;2024-02-04T06:21:27;101490.16;;;9.15;80.30
82728;BME280;72459;50.110;8.750;2024-02-04T06:23:53;101482.31;;;9.15;81.22
82728;BME280;72459;50.110;8.750;2024-02-04T06:26:18;101473.34;;;9.11;81.33
82728;BME280;72459;50.110;8.750;2024-02-04T06:28:43;101474.53;;;9.16;81.37
82728;BME280;72459;50.110;8.750;2024-02-04T06:31:11;101466.75;;;9.18;80.57
82728;BME280;72459;50.110;8.750;2024-02-04T06:33:37;101466.47;;;9.13;81.23
82728;BME280;72459;50.110;8.750;2024-02-04T06:36:02;101469.28;;;9.16;80.82
82728;BME280;72459;50.110;8.750;2024-02-04T06:38:28;101464.84;;;9.15;80.38
82728;BME280;72459;50.110;8.750;2024-02-04T06:40:53;101464.94;;;9.17;81.64
82728;BME280;72459;50.110;8.750;2024-02-04T06:43:18;101470.28;;;9.18;80.41
82728;BME280;72459;50.110;8.750;2024-02-04T06:45:44;101461.78;;;9.23;80.59
82728;BME280;72459;50.110;8.750;2024-02-04T06:48:09;101453.00;;;9.22;80.14
82728;BME280;72459;50.110;8.750;2024-02-04T06:50:35;101462.59;;;9.21;80.91
82728;BME280;72459;50.110;8.750;2024-02-04T06:53:00;101454.91;;;9.25;80.21
82728;BME280;72459;50.110;8.750;2024-02-04T06:55:26;101456.72;;;9.26;80.29
82728;BME280;72459;50.110;8.750;2024-02-04T06:57:51;101457.72;;;9.28;80.18
82728;BME280;72459;50.110;8.750;2024-02-04T07:00:17;101447.03;;;9.25;80.30
82728;BME280;72459;50.110;8.750;2024-02-04T07:02:42;101453.38;;;9.28;81.17
82728;BME280;72459;50.110;8.750;2024-02-04T07:05:07;101457.88;;;9.31;80.53
82728;BME280;72459;50.110;8.750;2024-02-04T07:07:33;101463.84;;;9.28;80.85
82728;BME280;72459;50.110;8.750;2024-02-04T07:09:59;101447.41;;;9.31;79.50
82728;BME280;72459;50.110;8.750;2024-02-04T07:12:24;101445.59;;;9.30;79.69
82728;BME280;72459;50.110;8.750;2024-02-04T07:14:49;101455.34;;;9.32;79.93
82728;BME280;72459;50.110;8.750;2024-02-04T07:17:15;101447.66;;;9.35;79.44
82728;BME280;72459;50.110;8.750;2024-02-04T07:19:40;101453.00;;;9.37;80.40
82728;BME280;72459;50.110;8.750;2024-02-04T07:22:06;101460.06;;;9.38;80.52
82728;BME280;72459;50.110;8.750;2024-02-04T07:24:31;101459.50;;;9.43;79.78
82728;BME280;72459;50.110;8.750;2024-02-04T07:26:57;101456.06;;;9.44;79.67
82728;BME280;72459;50.110;8.750;2024-02-04T07:29:23;101464.13;;;9.47;79.67
82728;BME280;72459;50.110;8.750;2024-02-04T07:31:48;101466.84;;;9.49;79.74
82728;BME280;72459;50.110;8.750;2024-02-04T07:34:13;101459.94;;;9.51;80.14
82728;BME280;72459;50.110;8.750;2024-02-04T07:36:39;101477.59;;;9.53;79.75
82728;BME280;72459;50.110;8.750;2024-02-04T07:39:05;101465.28;;;9.52;80.00
82728;BME280;72459;50.110;8.750;2024-02-04T07:41:31;101463.84;;;9.58;80.33
82728;BME280;72459;50.110;8.750;2024-02-04T07:43:57;101470.00;;;9.58;80.21
82728;BME280;72459;50.110;8.750;2024-02-04T07:46:22;101467.53;;;9.61;79.59
82728;BME280;72459;50.110;8.750;2024-02-04T07:48:48;101474.88;;;9.67;79.84
82728;BME280;72459;50.110;8.750;2024-02-04T07:51:13;101475.41;;;9.61;79.25
82728;BME280;72459;50.110;8.750;2024-02-04T07:53:38;101475.59;;;9.64;79.52
82728;BME280;72459;50.110;8.750;2024-02-04T07:56:04;101473.97;;;9.66;79.23
82728;BME280;72459;50.110;8.750;2024-02-04T07:58:34;101477.75;;;9.71;79.28
82728;BME280;72459;50.110;8.750;2024-02-04T08:01:00;101460.03;;;9.67;79.56
82728;BME280;72459;50.110;8.750;2024-02-04T08:03:25;101460.75;;;9.65;79.30
82728;BME280;72459;50.110;8.750;2024-02-04T08:05:51;101449.34;;;9.64;79.91
82728;BME280;72459;50.110;8.750;2024-02-04T08:08:16;101451.31;;;9.68;79.49
82728;BME280;72459;50.110;8.750;2024-02-04T08:10:42;101454.78;;;9.67;79.74
82728;BME280;72459;50.110;8.750;2024-02-04T08:13:07;101459.38;;;9.71;79.89
82728;BME280;72459;50.110;8.750;2024-02-04T08:15:33;101465.00;;;9.77;79.03
82728;BME280;72459;50.110;8.750;2024-02-04T08:17:58;101453.69;;;9.78;79.17
82728;BME280;72459;50.110;8.750;2024-02-04T08:20:23;101449.06;;;9.74;79.37
82728;BME280;72459;50.110;8.750;2024-02-04T08:22:49;101451.69;;;9.74;79.88
82728;BME280;72459;50.110;8.750;2024-02-04T08:25:14;101441.19;;;9.74;79.81
82728;BME280;72459;50.110;8.750;2024-02-04T08:27:40;101452.97;;;9.81;79.44
82728;BME280;72459;50.110;8.750;2024-02-04T08:30:06;101448.53;;;9.80;79.64
82728;BME280;72459;50.110;8.750;2024-02-04T08:32:32;101439.19;;;9.85;78.97
82728;BME280;72459;50.110;8.750;2024-02-04T08:34:57;101451.31;;;9.83;79.52
82728;BME280;72459;50.110;8.750;2024-02-04T08:37:23;101463.09;;;9.90;78.78
82728;BME280;72459;50.110;8.750;2024-02-04T08:39:49;101444.69;;;9.90;79.54
82728;BME280;72459;50.110;8.750;2024-02-04T08:42:15;101444.97;;;9.94;79.39
82728;BME280;72459;50.110;8.750;2024-02-04T08:44:40;101456.53;;;9.98;78.50
82728;BME280;72459;50.110;8.750;2024-02-04T08:47:06;101458.69;;;10.05;79.16
82728;BME280;72459;50.110;8.750;2024-02-04T08:49:37;101453.94;;;10.14;79.66
82728;BME280;72459;50.110;8.750;2024-02-04T08:52:02;101455.47;;;10.25;78.01
82728;BME280;72459;50.110;8.750;2024-02-04T08:54:29;101455.16;;;10.35;78.81
82728;BME280;72459;50.110;8.750;2024-02-04T08:56:54;101451.75;;;10.53;78.96
82728;BME280;72459;50.110;8.750;2024-02-04T08:59:19;101443.22;;;10.40;78.63
82728;BME280;72459;50.110;8.750;2024-02-04T09:01:45;101441.72;;;10.45;78.60
82728;BME280;72459;50.110;8.750;2024-02-04T09:04:10;101436.88;;;10.53;78.27
82728;BME280;72459;50.110;8.750;2024-02-04T09:06:36;101434.19;;;10.52;79.31
82728;BME280;72459;50.110;8.750;2024-02-04T09:09:01;101449.13;;;10.53;77.93
82728;BME280;72459;50.110;8.750;2024-02-04T09:11:26;101434.09;;;10.50;79.29
82728;BME280;72459;50.110;8.750;2024-02-04T09:13:52;101443.13;;;10.55;78.76
82728;BME280;72459;50.110;8.750;2024-02-04T09:16:17;101449.28;;;10.56;78.16
82728;BME280;72459;50.110;8.750;2024-02-04T09:18:42;101448.53;;;10.74;79.09
82728;BME280;72459;50.110;8.750;2024-02-04T09:21:08;101452.16;;;10.76;78.65
82728;BME280;72459;50.110;8.750;2024-02-04T09:23:33;101443.78;;;10.67;78.36
82728;BME280;72459;50.110;8.750;2024-02-04T09:25:59;101449.44;;;10.59;78.59
82728;BME280;72459;50.110;8.750;2024-02-04T09:28:24;101450.59;;;10.47;79.04
82728;BME280;72459;50.110;8.750;2024-02-04T09:30:49;101447.06;;;10.47;79.01
82728;BME280;72459;50.110;8.750;2024-02-04T09:33:15;101439.75;;;10.41;77.90
82728;BME280;72459;50.110;8.750;2024-02-04T09:35:40;101447.00;;;10.45;78.45
82728;BME280;72459;50.110;8.750;2024-02-04T09:38:06;101442.31;;;10.56;78.95
82728;BME280;72459;50.110;8.750;2024-02-04T09:40:31;101438.03;;;10.58;78.79
82728;BME280;72459;50.110;8.750;2024-02-04T09:42:58;101435.06;;;10.68;78.22
82728;BME280;72459;50.110;8.750;2024-02-04T09:45:23;101438.84;;;10.73;77.68
82728;BME280;72459;50.110;8.750;2024-02-04T09:47:50;101431.28;;;10.79;78.31
82728;BME280;72459;50.110;8.750;2024-02-04T09:50:18;101433.59;;;10.73;77.34
82728;BME280;72459;50.110;8.750;2024-02-04T09:52:48;101431.34;;;10.81;78.64
82728;BME280;72459;50.110;8.750;2024-02-04T09:55:16;101428.16;;;10.87;78.17
82728;BME280;72459;50.110;8.750;2024-02-04T09:57:43;101426.09;;;10.81;77.68
82728;BME280;72459;50.110;8.750;2024-02-04T10:00:10;101431.03;;;10.75;77.50
82728;BME280;72459;50.110;8.750;2024-02-04T10:02:35;101433.16;;;10.82;77.25
82728;BME280;72459;50.110;8.750;2024-02-04T10:05:01;101434.88;;;10.82;76.44
82728;BME280;72459;50.110;8.750;2024-02-04T10:07:28;101438.59;;;10.85;78.00
82728;BME280;72459;50.110;8.750;2024-02-04T10:09:54;101432.34;;;10.83;77.39
82728;BME280;72459;50.110;8.750;2024-02-04T10:12:20;101421.44;;;10.75;76.87
82728;BME280;72459;50.110;8.750;2024-02-04T10:14:45;101437.03;;;10.89;77.35
82728;BME280;72459;50.110;8.750;2024-02-04T10:17:13;101430.78;;;10.87;77.90
82728;BME280;72459;50.110;8.750;2024-02-04T10:19:40;101441.94;;;10.99;77.07
82728;BME280;72459;50.110;8.750;2024-02-04T10:22:05;101435.28;;;10.89;77.19
82728;BME280;72459;50.110;8.750;2024-02-04T10:24:31;101435.44;;;10.92;77.66
82728;BME280;72459;50.110;8.750;2024-02-04T10:26:56;101433.97;;;10.97;76.34
82728;BME280;72459;50.110;8.750;2024-02-04T10:29:25;101440.13;;;10.98;77.02
82728;BME280;72459;50.110;8.750;2024-02-04T10:31:57;101446.06;;;10.94;77.32
82728;BME280;72459;50.110;8.750;2024-02-04T10:34:31;101446.13;;;10.95;77.00
82728;BME280;72459;50.110;8.750;2024-02-04T10:36:57;101439.06;;;10.94;76.91
82728;BME280;72459;50.110;8.750;2024-02-04T10:39:23;101429.59;;;10.98;75.95
82728;BME280;72459;50.110;8.750;2024-02-04T10:41:51;101415.38;;;11.10;77.23
82728;BME280;72459;50.110;8.750;2024-02-04T10:44:23;101419.66;;;11.08;76.97
82728;BME280;72459;50.110;8.750;2024-02-04T10:46:50;101420.28;;;11.21;77.51
82728;BME280;72459;50.110;8.750;2024-02-04T10:49:18;101422.56;;;11.31;76.71
82728;BME280;72459;50.110;8.750;2024-02-04T10:51:45;101416.63;;;11.35;76.60
82728;BME280;72459;50.110;8.750;2024-02-04T10:54:14;101404.50;;;11.21;75.64
82728;BME280;72459;50.110;8.750;2024-02-04T10:56:43;101402.03;;;11.24;76.21
82728;BME280;72459;50.110;8.750;2024-02-04T10:59:18;101403.81;;;11.25;76.37
82728;BME280;72459;50.110;8.750;2024-02-04T11:01:45;101408.31;;;11.09;75.39
82728;BME280;72459;50.110;8.750;2024-02-04T11:04:14;101400.44;;;11.27;77.46
82728;BME280;72459;50.110;8.750;2024-02-04T11:06:40;101388.78;;;11.22;76.80
82728;BME280;72459;50.110;8.750;2024-02-04T11:09:08;101390.47;;;11.04;77.06
82728;BME280;72459;50.110;8.750;2024-02-04T11:11:36;101396.16;;;11.11;77.62
82728;BME280;72459;50.110;8.750;2024-02-04T11:14:04;101378.63;;;11.12;76.45
82728;BME280;72459;50.110;8.750;2024-02-04T11:19:47;101372.47;;;11.11;76.92
82728;BME280;72459;50.110;8.750;2024-02-04T11:22:37;101371.34;;;11.24;76.51
82728;BME280;72459;50.110;8.750;2024-02-04T11:28:11;101353.19;;;11.66;75.84
82728;BME280;72459;50.110;8.750;2024-02-04T11:30:36;101364.75;;;11.86;74.58
82728;BME280;72459;50.110;8.750;2024-02-04T11:33:06;101364.13;;;11.73;75.69
82728;BME280;72459;50.110;8.750;2024-02-04T11:35:34;101363.56;;;11.79;75.15
82728;BME280;72459;50.110;8.750;2024-02-04T11:38:02;101370.22;;;11.72;75.69
82728;BME280;72459;50.110;8.750;2024-02-04T11:40:34;101373.78;;;11.73;75.34
82728;BME280;72459;50.110;8.750;2024-02-04T11:43:12;101366.84;;;11.75;76.57
82728;BME280;72459;50.110;8.750;2024-02-04T11:45:39;101369.97;;;11.68;76.38
82728;BME280;72459;50.110;8.750;2024-02-04T11:48:09;101370.59;;;11.44;76.73
82728;BME280;72459;50.110;8.750;2024-02-04T11:50:35;101379.63;;;11.32;76.28
82728;BME280;72459;50.110;8.750;2024-02-04T11:53:11;101368.63;;;11.23;76.91
82728;BME280;72459;50.110;8.750;2024-02-04T11:55:41;101369.31;;;11.36;77.27
82728;BME280;72459;50.110;8.750;2024-02-04T11:58:07;101367.59;;;11.37;76.64
82728;BME280;72459;50.110;8.750;2024-02-04T12:00:36;101366.84;;;11.39;77.59
82728;BME280;72459;50.110;8.750;2024-02-04T12:03:06;101365.03;;;11.38;76.72
82728;BME280;72459;50.110;8.750;2024-02-04T12:05:33;101366.84;;;11.39;77.12
82728;BME280;72459;50.110;8.750;2024-02-04T12:08:03;101353.91;;;11.44;76.46
82728;BME280;72459;50.110;8.750;2024-02-04T12:10:31;101340.28;;;11.35;76.86
82728;BME280;72459;50.110;8.750;2024-02-04T12:12:59;101344.59;;;11.33;76.80
82728;BME280;72459;50.110;8.750;2024-02-04T12:15:28;101347.59;;;11.40;77.16
82728;BME280;72459;50.110;8.750;2024-02-04T12:17:55;101347.44;;;11.55;77.18
82728;BME280;72459;50.110;8.750;2024-02-04T12:20:21;101345.38;;;11.67;77.17
82728;BME280;72459;50.110;8.750;2024-02-04T12:22:46;101341.47;;;11.95;75.04
82728;BME280;72459;50.110;8.750;2024-02-04T12:25:14;101334.75;;;12.01;76.61
82728;BME280;72459;50.110;8.750;2024-02-04T12:27:39;101337.22;;;12.35;76.01
82728;BME280;72459;50.110;8.750;2024-02-04T12:30:05;101331.66;;;12.49;74.70
82728;BME280;72459;50.110;8.750;2024-02-04T12:32:32;101332.13;;;12.40;75.38
82728;BME280;72459;50.110;8.750;2024-02-04T12:34:58;101332.63;;;12.51;75.23
82728;BME280;72459;50.110;8.750;2024-02-04T12:37:23;101342.31;;;12.32;75.31
82728;BME280;72459;50.110;8.750;2024-02-04T12:39:49;101334.81;;;12.22;75.92
82728;BME280;72459;50.110;8.750;2024-02-04T12:42:16;101314.28;;;11.96;74.94
82728;BME280;72459;50.110;8.750;2024-02-04T12:44:49;101320.25;;;11.92;76.12
82728;BME280;72459;50.110;8.750;2024-02-04T12:47:19;101314.97;;;11.92;75.88
82728;BME280;72459;50.110;8.750;2024-02-04T12:49:44;101315.75;;;11.71;75.50
82728;BME280;72459;50.110;8.750;2024-02-04T12:52:10;101312.66;;;11.62;75.82
82728;BME280;72459;50.110;8.750;2024-02-04T12:54:45;101311.47;;;11.73;75.78
82728;BME280;72459;50.110;8.750;2024-02-04T12:57:21;101327.41;;;11.77;75.67
82728;BME280;72459;50.110;8.750;2024-02-04T12:59:47;101318.69;;;11.60;77.15
82728;BME280;72459;50.110;8.750;2024-02-04T13:02:14;101320.81;;;11.49;76.10
82728;BME280;72459;50.110;8.750;2024-02-04T13:04:41;101316.44;;;11.50;75.62